sensor_id;sensor_type;location;lat;lon;timestamp;temperature;humidity
9544;DHT22;30418;51.45933468;7.33152330;2023-05-02T00:00:04;16.80;55.80
9544;DHT22;30418;51.45933468;7.33152330;2023-05-02T00:02:36;16.80;55.90
9544;DHT22;30418;51.45933468;7.33152330;2023-05-02T00:05:07;16.80;55.80
9544;DHT22;30418;51.45933468;7.33152330;2023-05-02T00:07:36;16.80;55.90
9544;DHT22;30418;51.45933468;7.33152330;2023-05-02T00:10:06;16.80;55.90
9544;DHT22;30418;51.45933468;7.33152330;2023-05-02T00:12:36;16.70;55.80
9544;DHT22;30418;51.45933468;7.33152330;2023-05-02T00:15:05;16.70;55.80
9544;DHT22;30418;51.45933468;7.33152330;2023-05-02T00:17:34;16.70;55.90
9544;DHT22;30418;51.45933468;7.33152330;2023-05-02T00:20:04;16.80;55.90
9544;DHT22;30418;51.45933468;7.33152330;2023-05-02T00:22:37;16.70;55.90
9544;DHT22;30418;51.45933468;7.33152330;2023-05-02T00:25:06;16.80;55.90
9544;DHT22;30418;51.45933468;7.33152330;2023-05-02T00:27:36;16.80;56.00
9544;DHT22;30418;51.45933468;7.33152330;2023-05-02T00:30:05;16.70;55.90
9544;DHT22;30418;51.45933468;7.33152330;2023-05-02T00:32:35;16.70;55.90
9544;DHT22;30418;51.45933468;7.33152330;2023-05-02T00:35:05;16.70;55.90
9544;DHT22;30418;51.45933468;7.33152330;2023-05-02T00:37:35;16.70;55.90
9544;DHT22;30418;51.45933468;7.33152330;2023-05-02T00:40:06;16.70;55.80
9544;DHT22;30418;51.45933468;7.33152330;2023-05-02T00:42:35;16.70;55.80
9544;DHT22;30418;51.45933468;7.33152330;2023-05-02T00:45:04;16.70;55.90
9544;DHT22;30418;51.45933468;7.33152330;2023-05-02T00:47:34;16.60;55.90
9544;DHT22;30418;51.45933468;7.33152330;2023-05-02T00:50:03;16.60;55.90
9544;DHT22;30418;51.45933468;7.33152330;2023-05-02T00:52:32;16.60;56.00
9544;DHT22;30418;51.45933468;7.33152330;2023-05-02T00:55:03;16.60;55.90
9544;DHT22;30418;51.45933468;7.33152330;2023-05-02T00:57:32;16.50;55.90
9544;DHT22;30418;51.45933468;7.33152330;2023-05-02T01:00:01;16.50;55.90
9544;DHT22;30418;51.45933468;7.33152330;2023-05-02T01:02:40;16.50;56.10
9544;DHT22;30418;51.45933468;7.33152330;2023-05-02T01:05:16;16.40;56.20
9544;DHT22;30418;51.45933468;7.33152330;2023-05-02T01:07:58;16.30;56.10
9544;DHT22;30418;51.45933468;7.33152330;2023-05-02T01:10:41;16.30;56.40
9544;DHT22;30418;51.45933468;7.33152330;2023-05-02T01:13:19;16.30;56.50
9544;DHT22;30418;51.45933468;7.33152330;2023-05-02T01:15:51;16.20;56.40
9544;DHT22;30418;51.45933468;7.33152330;2023-05-02T01:18:23;16.20;56.50
9544;DHT22;30418;51.45933468;7.33152330;2023-05-02T01:20:56;16.20;56.60
9544;DHT22;30418;51.45933468;7.33152330;2023-05-02T01:23:31;16.10;56.70
9544;DHT22;30418;51.45933468;7.33152330;2023-05-02T01:26:15;16.10;56.80
9544;DHT22;30418;51.45933468;7.33152330;2023-05-02T01:28:56;16.10;56.80
9544;DHT22;30418;51.45933468;7.33152330;2023-05-02T01:31:28;16.00;56.70
9544;DHT22;30418;51.45933468;7.33152330;2023-05-02T01:34:00;16.10;56.80
9544;DHT22;30418;51.45933468;7.33152330;2023-05-02T01:36:30;16.00;56.70
9544;DHT22;30418;51.45933468;7.33152330;2023-05-02T01:39:00;16.00;56.70
9544;DHT22;30418;51.45933468;7.33152330;2023-05-02T01:41:30;16.00;56.90
9544;DHT22;30418;51.45933468;7.33152330;2023-05-02T01:44:02;16.00;57.00
9544;DHT22;30418;51.45933468;7.33152330;2023-05-02T01:46:34;16.00;57.10
9544;DHT22;30418;51.45933468;7.33152330;2023-05-02T01:49:05;16.00;57.20
9544;DHT22;30418;51.45933468;7.33152330;2023-05-02T01:51:36;16.00;57.20
9544;DHT22;30418;51.45933468;7.33152330;2023-05-02T01:54:08;16.00;57.10
9544;DHT22;30418;51.45933468;7.33152330;2023-05-02T01:56:38;16.00;57.10
9544;DHT22;30418;51.45933468;7.33152330;2023-05-02T01:59:11;16.00;57.10
9544;DHT22;30418;51.45933468;7.33152330;2023-05-02T02:01:42;16.00;57.20
9544;DHT22;30418;51.45933468;7.33152330;2023-05-02T02:04:14;16.00;57.20
9544;DHT22;30418;51.45933468;7.33152330;2023-05-02T02:06:47;16.00;57.40
9544;DHT22;30418;51.45933468;7.33152330;2023-05-02T02:09:19;16.00;57.40
9544;DHT22;30418;51.45933468;7.33152330;2023-05-02T02:11:51;15.90;57.20
9544;DHT22;30418;51.45933468;7.33152330;2023-05-02T02:14:25;15.90;57.50
9544;DHT22;30418;51.45933468;7.33152330;2023-05-02T02:16:55;15.80;57.40
9544;DHT22;30418;51.45933468;7.33152330;2023-05-02T02:19:29;15.80;57.40
9544;DHT22;30418;51.45933468;7.33152330;2023-05-02T02:21:59;15.70;57.50
9544;DHT22;30418;51.45933468;7.33152330;2023-05-02T02:24:28;15.70;57.50
9544;DHT22;30418;51.45933468;7.33152330;2023-05-02T02:26:57;15.60;57.60
9544;DHT22;30418;51.45933468;7.33152330;2023-05-02T02:29:27;15.60;57.50
9544;DHT22;30418;51.45933468;7.33152330;2023-05-02T02:31:56;15.60;57.70
9544;DHT22;30418;51.45933468;7.33152330;2023-05-02T02:34:25;15.50;57.60
9544;DHT22;30418;51.45933468;7.33152330;2023-05-02T02:36:56;15.50;57.70
9544;DHT22;30418;51.45933468;7.33152330;2023-05-02T02:39:38;15.50;57.90
9544;DHT22;30418;51.45933468;7.33152330;2023-05-02T02:42:28;15.50;58.10
9544;DHT22;30418;51.45933468;7.33152330;2023-05-02T02:45:09;15.50;58.10
9544;DHT22;30418;51.45933468;7.33152330;2023-05-02T02:47:49;15.40;58.10
9544;DHT22;30418;51.45933468;7.33152330;2023-05-02T02:50:29;15.50;58.10
9544;DHT22;30418;51.45933468;7.33152330;2023-05-02T02:53:01;15.40;58.10
9544;DHT22;30418;51.45933468;7.33152330;2023-05-02T02:55:39;15.40;58.10
9544;DHT22;30418;51.45933468;7.33152330;2023-05-02T02:58:19;15.40;58.20
9544;DHT22;30418;51.45933468;7.33152330;2023-05-02T03:00:52;15.40;58.20
9544;DHT22;30418;51.45933468;7.33152330;2023-05-02T03:03:22;15.40;58.20
9544;DHT22;30418;51.45933468;7.33152330;2023-05-02T03:05:55;15.40;58.10
9544;DHT22;30418;51.45933468;7.33152330;2023-05-02T03:08:24;15.40;58.30
9544;DHT22;30418;51.45933468;7.33152330;2023-05-02T03:10:53;15.40;58.30
9544;DHT22;30418;51.45933468;7.33152330;2023-05-02T03:13:21;15.40;58.30
9544;DHT22;30418;51.45933468;7.33152330;2023-05-02T03:16:17;15.40;58.40
9544;DHT22;30418;51.45933468;7.33152330;2023-05-02T03:18:58;15.40;58.70
9544;DHT22;30418;51.45933468;7.33152330;2023-05-02T03:21:26;15.40;59.10
9544;DHT22;30418;51.45933468;7.33152330;2023-05-02T03:24:03;15.40;58.50
9544;DHT22;30418;51.45933468;7.33152330;2023-05-02T03:26:32;15.40;58.60
9544;DHT22;30418;51.45933468;7.33152330;2023-05-02T03:29:01;15.40;58.60
9544;DHT22;30418;51.45933468;7.33152330;2023-05-02T03:31:37;15.40;58.60
9544;DHT22;30418;51.45933468;7.33152330;2023-05-02T03:34:05;15.40;58.60
9544;DHT22;30418;51.45933468;7.33152330;2023-05-02T03:36:35;15.40;58.50
9544;DHT22;30418;51.45933468;7.33152330;2023-05-02T03:39:04;15.40;58.60
9544;DHT22;30418;51.45933468;7.33152330;2023-05-02T03:41:34;15.40;58.60
9544;DHT22;30418;51.45933468;7.33152330;2023-05-02T03:44:06;15.40;58.60
9544;DHT22;30418;51.45933468;7.33152330;2023-05-02T03:46:37;15.40;58.60
9544;DHT22;30418;51.45933468;7.33152330;2023-05-02T03:49:09;15.40;58.60
9544;DHT22;30418;51.45933468;7.33152330;2023-05-02T03:51:42;15.40;58.60
9544;DHT22;30418;51.45933468;7.33152330;2023-05-02T03:54:12;15.40;58.60
9544;DHT22;30418;51.45933468;7.33152330;2023-05-02T03:56:41;15.40;58.60
9544;DHT22;30418;51.45933468;7.33152330;2023-05-02T03:59:32;15.40;58.60
9544;DHT22;30418;51.45933468;7.33152330;2023-05-02T04:02:09;15.40;59.20
9544;DHT22;30418;51.45933468;7.33152330;2023-05-02T04:04:42;15.40;58.60
9544;DHT22;30418;51.45933468;7.33152330;2023-05-02T04:07:14;15.40;58.60
9544;DHT22;30418;51.45933468;7.33152330;2023-05-02T04:09:49;15.40;58.60
9544;DHT22;30418;51.45933468;7.33152330;2023-05-02T04:12:18;15.40;58.60
9544;DHT22;30418;51.45933468;7.33152330;2023-05-02T04:14:50;15.40;58.60
9544;DHT22;30418;51.45933468;7.33152330;2023-05-02T04:17:23;15.40;58.60
9544;DHT22;30418;51.45933468;7.33152330;2023-05-02T04:19:52;15.40;59.20
9544;DHT22;30418;51.45933468;7.33152330;2023-05-02T04:22:24;15.40;58.60
9544;DHT22;30418;51.45933468;7.33152330;2023-05-02T04:24:57;15.40;58.60
9544;DHT22;30418;51.45933468;7.33152330;2023-05-02T04:27:26;15.40;58.60
9544;DHT22;30418;51.45933468;7.33152330;2023-05-02T04:29:55;15.40;58.60
9544;DHT22;30418;51.45933468;7.33152330;2023-05-02T04:32:26;15.40;58.60
9544;DHT22;30418;51.45933468;7.33152330;2023-05-02T04:34:56;15.40;58.60
9544;DHT22;30418;51.45933468;7.33152330;2023-05-02T04:37:25;15.40;58.60
9544;DHT22;30418;51.45933468;7.33152330;2023-05-02T04:39:54;15.40;58.60
9544;DHT22;30418;51.45933468;7.33152330;2023-05-02T04:42:26;15.40;58.60
9544;DHT22;30418;51.45933468;7.33152330;2023-05-02T04:45:05;15.40;58.70
9544;DHT22;30418;51.45933468;7.33152330;2023-05-02T04:47:36;15.30;58.80
9544;DHT22;30418;51.45933468;7.33152330;2023-05-02T04:50:07;15.30;58.90
9544;DHT22;30418;51.45933468;7.33152330;2023-05-02T04:52:36;15.30;59.00
9544;DHT22;30418;51.45933468;7.33152330;2023-05-02T04:55:06;15.30;59.10
9544;DHT22;30418;51.45933468;7.33152330;2023-05-02T04:57:35;15.20;59.10
9544;DHT22;30418;51.45933468;7.33152330;2023-05-02T05:00:08;15.30;59.30
9544;DHT22;30418;51.45933468;7.33152330;2023-05-02T05:02:38;15.20;59.40
9544;DHT22;30418;51.45933468;7.33152330;2023-05-02T05:05:08;15.20;59.50
9544;DHT22;30418;51.45933468;7.33152330;2023-05-02T05:07:37;15.10;59.50
9544;DHT22;30418;51.45933468;7.33152330;2023-05-02T05:10:07;15.10;59.60
9544;DHT22;30418;51.45933468;7.33152330;2023-05-02T05:12:43;15.10;59.70
9544;DHT22;30418;51.45933468;7.33152330;2023-05-02T05:15:13;15.10;59.70
9544;DHT22;30418;51.45933468;7.33152330;2023-05-02T05:17:48;15.10;59.80
9544;DHT22;30418;51.45933468;7.33152330;2023-05-02T05:20:17;15.10;59.90
9544;DHT22;30418;51.45933468;7.33152330;2023-05-02T05:22:47;15.10;59.90
9544;DHT22;30418;51.45933468;7.33152330;2023-05-02T05:25:15;15.10;60.00
9544;DHT22;30418;51.45933468;7.33152330;2023-05-02T05:27:46;15.10;60.00
9544;DHT22;30418;51.45933468;7.33152330;2023-05-02T05:30:15;15.10;60.20
9544;DHT22;30418;51.45933468;7.33152330;2023-05-02T05:32:43;15.10;60.30
9544;DHT22;30418;51.45933468;7.33152330;2023-05-02T05:35:14;15.10;60.50
9544;DHT22;30418;51.45933468;7.33152330;2023-05-02T05:37:42;15.00;60.70
9544;DHT22;30418;51.45933468;7.33152330;2023-05-02T05:40:14;15.00;60.40
9544;DHT22;30418;51.45933468;7.33152330;2023-05-02T05:42:50;15.00;60.50
9544;DHT22;30418;51.45933468;7.33152330;2023-05-02T05:45:29;14.90;60.50
9544;DHT22;30418;51.45933468;7.33152330;2023-05-02T05:47:57;14.90;60.40
9544;DHT22;30418;51.45933468;7.33152330;2023-05-02T05:50:31;14.80;60.40
9544;DHT22;30418;51.45933468;7.33152330;2023-05-02T05:53:00;14.80;60.60
9544;DHT22;30418;51.45933468;7.33152330;2023-05-02T05:55:28;14.70;60.50
9544;DHT22;30418;51.45933468;7.33152330;2023-05-02T05:57:57;14.70;60.50
9544;DHT22;30418;51.45933468;7.33152330;2023-05-02T06:00:26;14.70;60.80
9544;DHT22;30418;51.45933468;7.33152330;2023-05-02T06:02:55;14.70;60.80
9544;DHT22;30418;51.45933468;7.33152330;2023-05-02T06:05:26;14.60;60.70
9544;DHT22;30418;51.45933468;7.33152330;2023-05-02T06:07:57;14.60;60.90
9544;DHT22;30418;51.45933468;7.33152330;2023-05-02T06:10:26;14.60;61.10
9544;DHT22;30418;51.45933468;7.33152330;2023-05-02T06:12:56;14.60;60.70
9544;DHT22;30418;51.45933468;7.33152330;2023-05-02T06:15:30;14.60;60.60
9544;DHT22;30418;51.45933468;7.33152330;2023-05-02T06:18:01;14.60;60.70
9544;DHT22;30418;51.45933468;7.33152330;2023-05-02T06:20:29;14.50;60.70
9544;DHT22;30418;51.45933468;7.33152330;2023-05-02T06:23:00;14.50;60.50
9544;DHT22;30418;51.45933468;7.33152330;2023-05-02T06:25:28;14.50;60.80
9544;DHT22;30418;51.45933468;7.33152330;2023-05-02T06:27:58;14.40;60.70
9544;DHT22;30418;51.45933468;7.33152330;2023-05-02T06:30:27;14.50;61.00
9544;DHT22;30418;51.45933468;7.33152330;2023-05-02T06:32:55;14.50;61.20
9544;DHT22;30418;51.45933468;7.33152330;2023-05-02T06:35:24;14.50;61.30
9544;DHT22;30418;51.45933468;7.33152330;2023-05-02T06:37:53;14.50;61.30
9544;DHT22;30418;51.45933468;7.33152330;2023-05-02T06:40:22;14.50;61.30
9544;DHT22;30418;51.45933468;7.33152330;2023-05-02T06:42:51;14.50;61.30
9544;DHT22;30418;51.45933468;7.33152330;2023-05-02T06:45:19;14.50;61.30
9544;DHT22;30418;51.45933468;7.33152330;2023-05-02T06:47:48;14.50;61.30
9544;DHT22;30418;51.45933468;7.33152330;2023-05-02T06:50:17;14.60;61.30
9544;DHT22;30418;51.45933468;7.33152330;2023-05-02T06:52:45;14.60;61.40
9544;DHT22;30418;51.45933468;7.33152330;2023-05-02T06:55:14;14.60;61.50
9544;DHT22;30418;51.45933468;7.33152330;2023-05-02T06:57:44;14.60;61.50
9544;DHT22;30418;51.45933468;7.33152330;2023-05-02T07:00:14;14.60;61.50
9544;DHT22;30418;51.45933468;7.33152330;2023-05-02T07:02:44;14.60;61.50
9544;DHT22;30418;51.45933468;7.33152330;2023-05-02T07:05:14;14.70;61.60
9544;DHT22;30418;51.45933468;7.33152330;2023-05-02T07:07:43;14.70;61.40
9544;DHT22;30418;51.45933468;7.33152330;2023-05-02T07:10:12;14.70;61.50
9544;DHT22;30418;51.45933468;7.33152330;2023-05-02T07:12:40;14.80;61.40
9544;DHT22;30418;51.45933468;7.33152330;2023-05-02T07:15:11;14.70;61.20
9544;DHT22;30418;51.45933468;7.33152330;2023-05-02T07:17:42;14.80;61.30
9544;DHT22;30418;51.45933468;7.33152330;2023-05-02T07:20:13;14.80;61.10
9544;DHT22;30418;51.45933468;7.33152330;2023-05-02T07:22:42;14.80;60.90
9544;DHT22;30418;51.45933468;7.33152330;2023-05-02T07:25:10;14.80;60.90
9544;DHT22;30418;51.45933468;7.33152330;2023-05-02T07:27:39;14.80;60.80
9544;DHT22;30418;51.45933468;7.33152330;2023-05-02T07:30:08;14.80;60.80
9544;DHT22;30418;51.45933468;7.33152330;2023-05-02T07:32:39;14.80;60.80
9544;DHT22;30418;51.45933468;7.33152330;2023-05-02T07:35:08;14.80;60.70
9544;DHT22;30418;51.45933468;7.33152330;2023-05-02T07:37:36;14.80;60.80
9544;DHT22;30418;51.45933468;7.33152330;2023-05-02T07:40:06;14.70;60.50
9544;DHT22;30418;51.45933468;7.33152330;2023-05-02T07:42:36;14.70;60.70
9544;DHT22;30418;51.45933468;7.33152330;2023-05-02T07:45:05;14.70;60.60
9544;DHT22;30418;51.45933468;7.33152330;2023-05-02T07:47:36;14.70;60.90
9544;DHT22;30418;51.45933468;7.33152330;2023-05-02T07:50:05;14.70;60.90
9544;DHT22;30418;51.45933468;7.33152330;2023-05-02T07:52:34;14.70;60.90
9544;DHT22;30418;51.45933468;7.33152330;2023-05-02T07:55:04;14.70;60.70
9544;DHT22;30418;51.45933468;7.33152330;2023-05-02T07:57:33;14.70;60.60
9544;DHT22;30418;51.45933468;7.33152330;2023-05-02T08:00:02;14.70;60.50
9544;DHT22;30418;51.45933468;7.33152330;2023-05-02T08:02:40;14.60;60.40
9544;DHT22;30418;51.45933468;7.33152330;2023-05-02T08:05:09;14.60;60.40
9544;DHT22;30418;51.45933468;7.33152330;2023-05-02T08:07:38;14.60;60.00
9544;DHT22;30418;51.45933468;7.33152330;2023-05-02T08:10:07;14.50;59.80
9544;DHT22;30418;51.45933468;7.33152330;2023-05-02T08:12:37;14.50;59.80
9544;DHT22;30418;51.45933468;7.33152330;2023-05-02T08:15:09;14.40;59.60
9544;DHT22;30418;51.45933468;7.33152330;2023-05-02T08:17:40;14.30;59.60
9544;DHT22;30418;51.45933468;7.33152330;2023-05-02T08:20:10;14.20;59.40
9544;DHT22;30418;51.45933468;7.33152330;2023-05-02T08:22:38;14.10;59.20
9544;DHT22;30418;51.45933468;7.33152330;2023-05-02T08:25:07;14.00;59.20
9544;DHT22;30418;51.45933468;7.33152330;2023-05-02T08:27:36;14.00;59.40
9544;DHT22;30418;51.45933468;7.33152330;2023-05-02T08:30:06;13.90;59.30
9544;DHT22;30418;51.45933468;7.33152330;2023-05-02T08:32:35;13.80;59.40
9544;DHT22;30418;51.45933468;7.33152330;2023-05-02T08:35:06;13.80;59.70
9544;DHT22;30418;51.45933468;7.33152330;2023-05-02T08:37:37;13.70;59.60
9544;DHT22;30418;51.45933468;7.33152330;2023-05-02T08:40:11;13.70;60.00
9544;DHT22;30418;51.45933468;7.33152330;2023-05-02T08:42:41;13.70;60.10
9544;DHT22;30418;51.45933468;7.33152330;2023-05-02T08:45:12;13.70;60.00
9544;DHT22;30418;51.45933468;7.33152330;2023-05-02T08:47:43;13.70;59.80
9544;DHT22;30418;51.45933468;7.33152330;2023-05-02T08:50:15;13.70;59.70
9544;DHT22;30418;51.45933468;7.33152330;2023-05-02T08:52:46;13.60;59.60
9544;DHT22;30418;51.45933468;7.33152330;2023-05-02T08:55:16;13.60;59.60
9544;DHT22;30418;51.45933468;7.33152330;2023-05-02T08:57:55;13.60;59.60
9544;DHT22;30418;51.45933468;7.33152330;2023-05-02T09:00:25;13.60;59.50
9544;DHT22;30418;51.45933468;7.33152330;2023-05-02T09:03:05;13.60;59.60
9544;DHT22;30418;51.45933468;7.33152330;2023-05-02T09:05:39;13.60;59.60
9544;DHT22;30418;51.45933468;7.33152330;2023-05-02T09:08:08;13.50;59.50
9544;DHT22;30418;51.45933468;7.33152330;2023-05-02T09:10:38;13.60;59.50
9544;DHT22;30418;51.45933468;7.33152330;2023-05-02T09:13:31;13.60;59.50
9544;DHT22;30418;51.45933468;7.33152330;2023-05-02T09:16:01;13.50;59.50
9544;DHT22;30418;51.45933468;7.33152330;2023-05-02T09:18:33;13.60;59.40
9544;DHT22;30418;51.45933468;7.33152330;2023-05-02T09:21:09;13.60;59.40
9544;DHT22;30418;51.45933468;7.33152330;2023-05-02T09:23:39;13.50;59.50
9544;DHT22;30418;51.45933468;7.33152330;2023-05-02T09:26:16;13.50;59.40
9544;DHT22;30418;51.45933468;7.33152330;2023-05-02T09:28:46;13.50;59.50
9544;DHT22;30418;51.45933468;7.33152330;2023-05-02T09:31:16;13.50;59.50
9544;DHT22;30418;51.45933468;7.33152330;2023-05-02T09:34:08;13.50;59.50
9544;DHT22;30418;51.45933468;7.33152330;2023-05-02T09:36:41;13.50;59.60
9544;DHT22;30418;51.45933468;7.33152330;2023-05-02T09:39:12;13.50;59.60
9544;DHT22;30418;51.45933468;7.33152330;2023-05-02T09:41:42;13.60;59.80
9544;DHT22;30418;51.45933468;7.33152330;2023-05-02T09:44:12;13.60;59.80
9544;DHT22;30418;51.45933468;7.33152330;2023-05-02T09:46:42;13.60;59.80
9544;DHT22;30418;51.45933468;7.33152330;2023-05-02T09:49:11;13.60;59.80
9544;DHT22;30418;51.45933468;7.33152330;2023-05-02T09:51:42;13.60;59.80
9544;DHT22;30418;51.45933468;7.33152330;2023-05-02T09:54:11;13.60;59.60
9544;DHT22;30418;51.45933468;7.33152330;2023-05-02T09:56:52;13.70;59.60
9544;DHT22;30418;51.45933468;7.33152330;2023-05-02T09:59:23;13.70;59.60
9544;DHT22;30418;51.45933468;7.33152330;2023-05-02T10:01:55;13.70;59.60
9544;DHT22;30418;51.45933468;7.33152330;2023-05-02T10:04:26;13.70;59.60
9544;DHT22;30418;51.45933468;7.33152330;2023-05-02T10:06:57;13.70;59.50
9544;DHT22;30418;51.45933468;7.33152330;2023-05-02T10:09:26;13.80;59.40
9544;DHT22;30418;51.45933468;7.33152330;2023-05-02T10:12:01;13.80;59.40
9544;DHT22;30418;51.45933468;7.33152330;2023-05-02T10:14:34;13.80;59.30
9544;DHT22;30418;51.45933468;7.33152330;2023-05-02T10:17:11;13.80;59.20
9544;DHT22;30418;51.45933468;7.33152330;2023-05-02T10:19:49;13.90;59.30
9544;DHT22;30418;51.45933468;7.33152330;2023-05-02T10:22:22;13.90;59.20
9544;DHT22;30418;51.45933468;7.33152330;2023-05-02T10:24:52;14.00;59.20
9544;DHT22;30418;51.45933468;7.33152330;2023-05-02T10:27:21;14.00;59.20
9544;DHT22;30418;51.45933468;7.33152330;2023-05-02T10:29:50;14.00;59.10
9544;DHT22;30418;51.45933468;7.33152330;2023-05-02T10:32:21;14.10;58.90
9544;DHT22;30418;51.45933468;7.33152330;2023-05-02T10:34:53;14.10;58.70
9544;DHT22;30418;51.45933468;7.33152330;2023-05-02T10:37:25;14.10;58.50
9544;DHT22;30418;51.45933468;7.33152330;2023-05-02T10:39:54;14.20;59.10
9544;DHT22;30418;51.45933468;7.33152330;2023-05-02T10:42:23;14.20;58.00
9544;DHT22;30418;51.45933468;7.33152330;2023-05-02T10:44:52;14.30;57.90
9544;DHT22;30418;51.45933468;7.33152330;2023-05-02T10:47:21;14.30;57.80
9544;DHT22;30418;51.45933468;7.33152330;2023-05-02T10:49:52;14.40;57.80
9544;DHT22;30418;51.45933468;7.33152330;2023-05-02T10:52:28;14.40;57.80
9544;DHT22;30418;51.45933468;7.33152330;2023-05-02T10:55:14;14.40;57.70
9544;DHT22;30418;51.45933468;7.33152330;2023-05-02T10:58:20;14.40;57.40
9544;DHT22;30418;51.45933468;7.33152330;2023-05-02T11:04:07;14.50;57.00
9544;DHT22;30418;51.45933468;7.33152330;2023-05-02T11:09:45;14.50;56.80
9544;DHT22;30418;51.45933468;7.33152330;2023-05-02T11:12:44;14.50;56.90
9544;DHT22;30418;51.45933468;7.33152330;2023-05-02T11:15:28;14.50;56.70
9544;DHT22;30418;51.45933468;7.33152330;2023-05-02T11:18:20;14.60;57.10
9544;DHT22;30418;51.45933468;7.33152330;2023-05-02T11:20:48;14.60;57.10
9544;DHT22;30418;51.45933468;7.33152330;2023-05-02T11:23:22;14.60;57.00
9544;DHT22;30418;51.45933468;7.33152330;2023-05-02T11:25:55;14.60;56.80
9544;DHT22;30418;51.45933468;7.33152330;2023-05-02T11:28:47;14.70;56.50
9544;DHT22;30418;51.45933468;7.33152330;2023-05-02T11:34:50;14.70;56.30
9544;DHT22;30418;51.45933468;7.33152330;2023-05-02T11:37:19;14.80;56.50
9544;DHT22;30418;51.45933468;7.33152330;2023-05-02T11:39:48;14.80;56.40
9544;DHT22;30418;51.45933468;7.33152330;2023-05-02T11:42:27;14.90;56.40
9544;DHT22;30418;51.45933468;7.33152330;2023-05-02T11:44:57;14.90;56.20
9544;DHT22;30418;51.45933468;7.33152330;2023-05-02T11:47:27;14.90;56.90
9544;DHT22;30418;51.45933468;7.33152330;2023-05-02T11:49:58;14.90;56.00
9544;DHT22;30418;51.45933468;7.33152330;2023-05-02T11:52:27;15.00;55.90
9544;DHT22;30418;51.45933468;7.33152330;2023-05-02T11:54:56;15.00;55.80
9544;DHT22;30418;51.45933468;7.33152330;2023-05-02T11:57:25;15.00;55.80
9544;DHT22;30418;51.45933468;7.33152330;2023-05-02T11:59:56;15.00;55.60
9544;DHT22;30418;51.45933468;7.33152330;2023-05-02T12:02:35;15.00;55.60
9544;DHT22;30418;51.45933468;7.33152330;2023-05-02T12:05:07;15.00;55.20
9544;DHT22;30418;51.45933468;7.33152330;2023-05-02T12:07:40;15.00;55.00
9544;DHT22;30418;51.45933468;7.33152330;2023-05-02T12:10:12;15.00;55.10
9544;DHT22;30418;51.45933468;7.33152330;2023-05-02T12:12:43;15.00;55.00
9544;DHT22;30418;51.45933468;7.33152330;2023-05-02T12:15:11;15.00;55.10
9544;DHT22;30418;51.45933468;7.33152330;2023-05-02T12:17:42;15.00;54.70
9544;DHT22;30418;51.45933468;7.33152330;2023-05-02T12:20:16;15.00;54.60
9544;DHT22;30418;51.45933468;7.33152330;2023-05-02T12:22:45;15.00;54.70
9544;DHT22;30418;51.45933468;7.33152330;2023-05-02T12:25:14;15.00;54.70
9544;DHT22;30418;51.45933468;7.33152330;2023-05-02T12:27:57;15.10;54.70
9544;DHT22;30418;51.45933468;7.33152330;2023-05-02T12:30:27;15.10;54.30
9544;DHT22;30418;51.45933468;7.33152330;2023-05-02T12:32:56;15.10;54.40
9544;DHT22;30418;51.45933468;7.33152330;2023-05-02T12:35:30;15.20;54.50
9544;DHT22;30418;51.45933468;7.33152330;2023-05-02T12:38:13;15.30;54.40
9544;DHT22;30418;51.45933468;7.33152330;2023-05-02T12:40:47;15.30;53.90
9544;DHT22;30418;51.45933468;7.33152330;2023-05-02T12:43:18;15.40;53.80
9544;DHT22;30418;51.45933468;7.33152330;2023-05-02T12:45:48;15.40;53.80
9544;DHT22;30418;51.45933468;7.33152330;2023-05-02T12:48:22;15.40;53.80
9544;DHT22;30418;51.45933468;7.33152330;2023-05-02T12:50:53;15.40;53.30
9544;DHT22;30418;51.45933468;7.33152330;2023-05-02T12:53:38;15.40;52.90
9544;DHT22;30418;51.45933468;7.33152330;2023-05-02T12:56:08;15.40;52.80
9544;DHT22;30418;51.45933468;7.33152330;2023-05-02T12:58:41;15.40;53.20
9544;DHT22;30418;51.45933468;7.33152330;2023-05-02T13:01:11;15.40;53.00
9544;DHT22;30418;51.45933468;7.33152330;2023-05-02T13:03:42;15.50;53.10
9544;DHT22;30418;51.45933468;7.33152330;2023-05-02T13:06:12;15.50;52.80
9544;DHT22;30418;51.45933468;7.33152330;2023-05-02T13:08:41;15.50;52.70
9544;DHT22;30418;51.45933468;7.33152330;2023-05-02T13:11:10;15.60;52.70
9544;DHT22;30418;51.45933468;7.33152330;2023-05-02T13:13:38;15.60;52.70
9544;DHT22;30418;51.45933468;7.33152330;2023-05-02T13:16:07;15.60;52.60
9544;DHT22;30418;51.45933468;7.33152330;2023-05-02T13:18:36;15.70;52.40
9544;DHT22;30418;51.45933468;7.33152330;2023-05-02T13:21:05;15.80;52.30
9544;DHT22;30418;51.45933468;7.33152330;2023-05-02T13:23:35;15.90;52.70
9544;DHT22;30418;51.45933468;7.33152330;2023-05-02T13:26:05;15.90;52.40
9544;DHT22;30418;51.45933468;7.33152330;2023-05-02T13:28:34;16.00;52.10
9544;DHT22;30418;51.45933468;7.33152330;2023-05-02T13:31:03;16.10;51.60
9544;DHT22;30418;51.45933468;7.33152330;2023-05-02T13:33:32;16.10;51.30
9544;DHT22;30418;51.45933468;7.33152330;2023-05-02T13:36:00;16.10;51.10
9544;DHT22;30418;51.45933468;7.33152330;2023-05-02T13:38:29;16.10;51.00
9544;DHT22;30418;51.45933468;7.33152330;2023-05-02T13:40:59;16.10;50.60
9544;DHT22;30418;51.45933468;7.33152330;2023-05-02T13:43:27;16.10;50.50
9544;DHT22;30418;51.45933468;7.33152330;2023-05-02T13:45:56;16.10;51.00
9544;DHT22;30418;51.45933468;7.33152330;2023-05-02T13:48:24;16.10;50.80
9544;DHT22;30418;51.45933468;7.33152330;2023-05-02T13:50:52;16.20;50.90
9544;DHT22;30418;51.45933468;7.33152330;2023-05-02T13:53:21;16.20;50.80
9544;DHT22;30418;51.45933468;7.33152330;2023-05-02T13:55:49;16.30;50.90
9544;DHT22;30418;51.45933468;7.33152330;2023-05-02T13:58:19;16.40;50.50
9544;DHT22;30418;51.45933468;7.33152330;2023-05-02T14:00:48;16.40;50.40
9544;DHT22;30418;51.45933468;7.33152330;2023-05-02T14:03:17;16.40;49.80
9544;DHT22;30418;51.45933468;7.33152330;2023-05-02T14:05:46;16.40;49.50
9544;DHT22;30418;51.45933468;7.33152330;2023-05-02T14:08:15;16.40;49.70